KGEY/GEY METAR and TAF weather

Enter ICAO airport designator
Station Type Date Time Source
KGEY METAR 2024/04/15 08:53 UTC NOAA

KGEY 150853Z AUTO 30005KT 10SM CLR 10/01 A2965 RMK AO2 SLP011 T01000006 58005


Station Type Date Time Source
KGEY Decoded METAR 2024/04/15 08:53 UTC NOAA

SOUTH BIG HORN COUNTY AIRPORT , WY, United States (KGEY) 44-31N 108-05W 1191M
Apr 15, 2024 - 04:53 AM EDT / 2024.04.15 0853 UTC
Wind: from the WNW (300 degrees) at 6 MPH (5 KT):0
Visibility: 10 mile(s):0
Sky conditions: clear
Temperature: 50.0 F (10.0 C)
Dew Point: 33.1 F (0.6 C)
Relative Humidity: 51%
Pressure (altimeter): 29.65 in. Hg (1004 hPa)
Pressure tendency: 0.01 inches (0.5 hPa) lower than three hours ago
ob: KGEY 150853Z AUTO 30005KT 10SM CLR 10/01 A2965 RMK AO2 SLP011 T01000006 58005
cycle: 9

Station Type Date Time Source
KGEY TAF UTC NOAA

Error!

Example: see airport list